Klondike, Georgia
Current Conditions -  °F | °C
As of 12:15 PM on Saturday 25 Oct 2014 (Local Time) from KPXE Reporting Station
Clear Clear  
Wind Chill: 73°   Ceiling: Unl
Heat Index: 73°   Visibility: 7mi
Dew Point: 43°   Wind: 0mph
Humidity: 34%   Direction: NA
Pressure: 30.06"   Gusts: NA
Location:  32.2568°N, 83.5362°W
Report Text: KPXE 251615Z AUTO 00000KT 7SM CLR 23/06 A3006 RMK AO2 T02250059
Loading
Personal Weather Stations






























Interactive Weather Map
Tropical Storm Tracking
New forecast layout! Learn more

10-Day Weather Forecast

Advertisements
Track Severe Weather on mobile